sensor_id;sensor_type;location;lat;lon;timestamp;temperature;humidity
15127;DHT22;7664;52.008;4.748;2023-09-30T00:00:07;14.50;99.90
15127;DHT22;7664;52.008;4.748;2023-09-30T00:02:36;14.50;99.90
15127;DHT22;7664;52.008;4.748;2023-09-30T00:05:05;14.50;99.90
15127;DHT22;7664;52.008;4.748;2023-09-30T00:07:35;14.50;99.90
15127;DHT22;7664;52.008;4.748;2023-09-30T00:10:04;14.50;99.90
15127;DHT22;7664;52.008;4.748;2023-09-30T00:12:32;14.50;99.90
15127;DHT22;7664;52.008;4.748;2023-09-30T00:15:00;14.50;99.90
15127;DHT22;7664;52.008;4.748;2023-09-30T00:17:29;14.50;99.90
15127;DHT22;7664;52.008;4.748;2023-09-30T00:19:57;14.60;99.90
15127;DHT22;7664;52.008;4.748;2023-09-30T00:22:25;14.50;99.90
15127;DHT22;7664;52.008;4.748;2023-09-30T00:24:55;14.50;99.90
15127;DHT22;7664;52.008;4.748;2023-09-30T00:27:23;14.60;99.90
15127;DHT22;7664;52.008;4.748;2023-09-30T00:29:51;14.50;99.90
15127;DHT22;7664;52.008;4.748;2023-09-30T00:32:19;14.50;99.90
15127;DHT22;7664;52.008;4.748;2023-09-30T00:34:47;14.50;99.90
15127;DHT22;7664;52.008;4.748;2023-09-30T00:37:16;14.50;99.90
15127;DHT22;7664;52.008;4.748;2023-09-30T00:39:44;14.50;99.90
15127;DHT22;7664;52.008;4.748;2023-09-30T00:42:13;14.40;99.90
15127;DHT22;7664;52.008;4.748;2023-09-30T00:44:41;14.40;99.90
15127;DHT22;7664;52.008;4.748;2023-09-30T00:47:09;14.40;99.90
15127;DHT22;7664;52.008;4.748;2023-09-30T00:49:38;14.40;99.90
15127;DHT22;7664;52.008;4.748;2023-09-30T00:52:06;14.40;99.90
15127;DHT22;7664;52.008;4.748;2023-09-30T00:54:34;14.40;99.90
15127;DHT22;7664;52.008;4.748;2023-09-30T00:57:05;14.40;99.90
15127;DHT22;7664;52.008;4.748;2023-09-30T00:59:34;14.40;99.90
15127;DHT22;7664;52.008;4.748;2023-09-30T01:02:03;14.30;99.90
15127;DHT22;7664;52.008;4.748;2023-09-30T01:04:32;14.30;99.90
15127;DHT22;7664;52.008;4.748;2023-09-30T01:07:00;14.30;99.90
15127;DHT22;7664;52.008;4.748;2023-09-30T01:09:28;14.30;99.90
15127;DHT22;7664;52.008;4.748;2023-09-30T01:11:57;14.30;99.90
15127;DHT22;7664;52.008;4.748;2023-09-30T01:14:26;14.30;99.90
15127;DHT22;7664;52.008;4.748;2023-09-30T01:16:57;14.40;99.90
15127;DHT22;7664;52.008;4.748;2023-09-30T01:19:25;14.20;99.90
15127;DHT22;7664;52.008;4.748;2023-09-30T01:21:56;14.30;99.90
15127;DHT22;7664;52.008;4.748;2023-09-30T01:24:27;14.30;99.90
15127;DHT22;7664;52.008;4.748;2023-09-30T01:26:56;14.30;99.90
15127;DHT22;7664;52.008;4.748;2023-09-30T01:29:25;14.30;99.90
15127;DHT22;7664;52.008;4.748;2023-09-30T01:31:53;14.30;99.90
15127;DHT22;7664;52.008;4.748;2023-09-30T01:34:21;14.20;99.90
15127;DHT22;7664;52.008;4.748;2023-09-30T01:36:49;14.20;99.90
15127;DHT22;7664;52.008;4.748;2023-09-30T01:39:19;14.20;99.90
15127;DHT22;7664;52.008;4.748;2023-09-30T01:41:47;14.20;99.90
15127;DHT22;7664;52.008;4.748;2023-09-30T01:44:15;14.30;99.90
15127;DHT22;7664;52.008;4.748;2023-09-30T01:46:43;14.20;99.90
15127;DHT22;7664;52.008;4.748;2023-09-30T01:49:11;14.20;99.90
15127;DHT22;7664;52.008;4.748;2023-09-30T01:51:40;14.20;99.90
15127;DHT22;7664;52.008;4.748;2023-09-30T01:54:08;14.20;99.90
15127;DHT22;7664;52.008;4.748;2023-09-30T01:56:39;14.20;99.90
15127;DHT22;7664;52.008;4.748;2023-09-30T01:59:08;14.30;99.90
15127;DHT22;7664;52.008;4.748;2023-09-30T02:01:36;14.20;99.90
15127;DHT22;7664;52.008;4.748;2023-09-30T02:04:05;14.20;99.90
15127;DHT22;7664;52.008;4.748;2023-09-30T02:06:34;14.20;99.90
15127;DHT22;7664;52.008;4.748;2023-09-30T02:09:03;14.20;99.90
15127;DHT22;7664;52.008;4.748;2023-09-30T02:11:35;14.20;99.90
15127;DHT22;7664;52.008;4.748;2023-09-30T02:14:05;14.20;99.90
15127;DHT22;7664;52.008;4.748;2023-09-30T02:16:34;14.20;99.90
15127;DHT22;7664;52.008;4.748;2023-09-30T02:19:02;14.20;99.90
15127;DHT22;7664;52.008;4.748;2023-09-30T02:21:30;14.20;99.90
15127;DHT22;7664;52.008;4.748;2023-09-30T02:23:58;14.30;99.90
15127;DHT22;7664;52.008;4.748;2023-09-30T02:26:27;14.30;99.90
15127;DHT22;7664;52.008;4.748;2023-09-30T02:28:56;14.30;99.90
15127;DHT22;7664;52.008;4.748;2023-09-30T02:31:25;14.30;99.90
15127;DHT22;7664;52.008;4.748;2023-09-30T02:33:53;14.30;99.90
15127;DHT22;7664;52.008;4.748;2023-09-30T02:36:22;14.30;99.90
15127;DHT22;7664;52.008;4.748;2023-09-30T02:38:50;14.30;99.90
15127;DHT22;7664;52.008;4.748;2023-09-30T02:41:18;14.30;99.90
15127;DHT22;7664;52.008;4.748;2023-09-30T02:43:46;14.30;99.90
15127;DHT22;7664;52.008;4.748;2023-09-30T02:46:14;14.40;99.90
15127;DHT22;7664;52.008;4.748;2023-09-30T02:48:43;14.30;99.90
15127;DHT22;7664;52.008;4.748;2023-09-30T02:51:12;14.30;99.90
15127;DHT22;7664;52.008;4.748;2023-09-30T02:53:40;14.30;99.90
15127;DHT22;7664;52.008;4.748;2023-09-30T02:56:08;14.30;99.90
15127;DHT22;7664;52.008;4.748;2023-09-30T02:58:37;14.30;99.90
15127;DHT22;7664;52.008;4.748;2023-09-30T03:01:07;14.30;99.90
15127;DHT22;7664;52.008;4.748;2023-09-30T03:03:38;14.30;99.90
15127;DHT22;7664;52.008;4.748;2023-09-30T03:06:08;14.30;99.90
15127;DHT22;7664;52.008;4.748;2023-09-30T03:08:37;14.30;99.90
15127;DHT22;7664;52.008;4.748;2023-09-30T03:11:06;14.30;99.90
15127;DHT22;7664;52.008;4.748;2023-09-30T03:13:34;14.40;99.90
15127;DHT22;7664;52.008;4.748;2023-09-30T03:16:02;14.30;99.90
15127;DHT22;7664;52.008;4.748;2023-09-30T03:18:31;14.30;99.90
15127;DHT22;7664;52.008;4.748;2023-09-30T03:21:00;14.30;99.90
15127;DHT22;7664;52.008;4.748;2023-09-30T03:23:29;14.30;99.90
15127;DHT22;7664;52.008;4.748;2023-09-30T03:25:58;14.30;99.90
15127;DHT22;7664;52.008;4.748;2023-09-30T03:28:26;14.30;99.90
15127;DHT22;7664;52.008;4.748;2023-09-30T03:30:54;14.30;99.90
15127;DHT22;7664;52.008;4.748;2023-09-30T03:33:23;14.30;99.90
15127;DHT22;7664;52.008;4.748;2023-09-30T03:35:52;14.30;99.90
15127;DHT22;7664;52.008;4.748;2023-09-30T03:38:20;14.40;99.90
15127;DHT22;7664;52.008;4.748;2023-09-30T03:40:50;14.40;99.90
15127;DHT22;7664;52.008;4.748;2023-09-30T03:43:21;14.30;99.90
15127;DHT22;7664;52.008;4.748;2023-09-30T03:45:49;14.40;99.90
15127;DHT22;7664;52.008;4.748;2023-09-30T03:48:17;14.40;99.90
15127;DHT22;7664;52.008;4.748;2023-09-30T03:50:46;14.40;99.90
15127;DHT22;7664;52.008;4.748;2023-09-30T03:53:15;14.40;99.90
15127;DHT22;7664;52.008;4.748;2023-09-30T03:55:43;14.40;99.90
15127;DHT22;7664;52.008;4.748;2023-09-30T03:58:13;14.40;99.90
15127;DHT22;7664;52.008;4.748;2023-09-30T04:00:42;14.40;99.90
15127;DHT22;7664;52.008;4.748;2023-09-30T04:03:10;14.40;99.90
15127;DHT22;7664;52.008;4.748;2023-09-30T04:05:38;14.40;99.90
15127;DHT22;7664;52.008;4.748;2023-09-30T04:08:07;14.40;99.90
15127;DHT22;7664;52.008;4.748;2023-09-30T04:10:37;14.30;99.90
15127;DHT22;7664;52.008;4.748;2023-09-30T04:13:05;14.40;99.90
15127;DHT22;7664;52.008;4.748;2023-09-30T04:15:34;14.40;99.90
15127;DHT22;7664;52.008;4.748;2023-09-30T04:18:05;14.40;99.90
15127;DHT22;7664;52.008;4.748;2023-09-30T04:20:33;14.30;99.90
15127;DHT22;7664;52.008;4.748;2023-09-30T04:23:01;14.30;99.90
15127;DHT22;7664;52.008;4.748;2023-09-30T04:25:29;14.30;99.90
15127;DHT22;7664;52.008;4.748;2023-09-30T04:27:57;14.30;99.90
15127;DHT22;7664;52.008;4.748;2023-09-30T04:30:25;14.30;99.90
15127;DHT22;7664;52.008;4.748;2023-09-30T04:32:55;14.30;99.90
15127;DHT22;7664;52.008;4.748;2023-09-30T04:35:25;14.30;99.90
15127;DHT22;7664;52.008;4.748;2023-09-30T04:37:53;14.30;99.90
15127;DHT22;7664;52.008;4.748;2023-09-30T04:40:21;14.30;99.90
15127;DHT22;7664;52.008;4.748;2023-09-30T04:42:49;14.30;99.90
15127;DHT22;7664;52.008;4.748;2023-09-30T04:45:17;14.30;99.90
15127;DHT22;7664;52.008;4.748;2023-09-30T04:47:47;14.30;99.90
15127;DHT22;7664;52.008;4.748;2023-09-30T04:50:17;14.30;99.90
15127;DHT22;7664;52.008;4.748;2023-09-30T04:52:49;14.30;99.90
15127;DHT22;7664;52.008;4.748;2023-09-30T04:55:18;14.40;99.90
15127;DHT22;7664;52.008;4.748;2023-09-30T04:57:46;14.30;99.90
15127;DHT22;7664;52.008;4.748;2023-09-30T05:00:16;14.30;99.90
15127;DHT22;7664;52.008;4.748;2023-09-30T05:02:45;14.30;99.90
15127;DHT22;7664;52.008;4.748;2023-09-30T05:05:15;14.30;99.90
15127;DHT22;7664;52.008;4.748;2023-09-30T05:07:44;14.30;99.90
15127;DHT22;7664;52.008;4.748;2023-09-30T05:10:14;14.30;99.90
15127;DHT22;7664;52.008;4.748;2023-09-30T05:12:43;14.30;99.90
15127;DHT22;7664;52.008;4.748;2023-09-30T05:15:15;14.30;99.90
15127;DHT22;7664;52.008;4.748;2023-09-30T05:17:44;14.30;99.90
15127;DHT22;7664;52.008;4.748;2023-09-30T05:20:13;14.30;99.90
15127;DHT22;7664;52.008;4.748;2023-09-30T05:22:45;14.30;99.90
15127;DHT22;7664;52.008;4.748;2023-09-30T05:25:16;14.30;99.90
15127;DHT22;7664;52.008;4.748;2023-09-30T05:27:46;14.30;99.90
15127;DHT22;7664;52.008;4.748;2023-09-30T05:30:16;14.20;99.90
15127;DHT22;7664;52.008;4.748;2023-09-30T05:32:44;14.20;99.90
15127;DHT22;7664;52.008;4.748;2023-09-30T05:35:14;14.20;99.90
15127;DHT22;7664;52.008;4.748;2023-09-30T05:37:46;14.20;99.90
15127;DHT22;7664;52.008;4.748;2023-09-30T05:40:14;14.20;99.90
15127;DHT22;7664;52.008;4.748;2023-09-30T05:42:51;14.10;99.90
15127;DHT22;7664;52.008;4.748;2023-09-30T05:45:19;14.10;99.90
15127;DHT22;7664;52.008;4.748;2023-09-30T05:47:47;14.10;99.90
15127;DHT22;7664;52.008;4.748;2023-09-30T05:50:18;14.10;99.90
15127;DHT22;7664;52.008;4.748;2023-09-30T05:52:53;14.10;99.90
15127;DHT22;7664;52.008;4.748;2023-09-30T05:55:22;14.10;99.90
15127;DHT22;7664;52.008;4.748;2023-09-30T05:57:53;14.10;99.90
15127;DHT22;7664;52.008;4.748;2023-09-30T06:00:22;14.10;99.90
15127;DHT22;7664;52.008;4.748;2023-09-30T06:02:55;14.10;99.90
15127;DHT22;7664;52.008;4.748;2023-09-30T06:05:24;14.10;99.90
15127;DHT22;7664;52.008;4.748;2023-09-30T06:07:54;14.10;99.90
15127;DHT22;7664;52.008;4.748;2023-09-30T06:10:23;14.10;99.90
15127;DHT22;7664;52.008;4.748;2023-09-30T06:12:53;14.10;99.90
15127;DHT22;7664;52.008;4.748;2023-09-30T06:15:23;14.10;99.90
15127;DHT22;7664;52.008;4.748;2023-09-30T06:17:54;14.20;99.90
15127;DHT22;7664;52.008;4.748;2023-09-30T06:20:23;14.20;99.90
15127;DHT22;7664;52.008;4.748;2023-09-30T06:22:55;14.30;99.90
15127;DHT22;7664;52.008;4.748;2023-09-30T06:25:25;14.30;99.90
15127;DHT22;7664;52.008;4.748;2023-09-30T06:27:54;14.30;99.90
15127;DHT22;7664;52.008;4.748;2023-09-30T06:30:23;14.30;99.90
15127;DHT22;7664;52.008;4.748;2023-09-30T06:32:57;14.40;99.90
15127;DHT22;7664;52.008;4.748;2023-09-30T06:35:28;14.40;99.90
15127;DHT22;7664;52.008;4.748;2023-09-30T06:37:59;14.40;99.90
15127;DHT22;7664;52.008;4.748;2023-09-30T06:40:27;14.50;99.90
15127;DHT22;7664;52.008;4.748;2023-09-30T06:42:55;14.50;99.90
15127;DHT22;7664;52.008;4.748;2023-09-30T06:45:24;14.60;99.90
15127;DHT22;7664;52.008;4.748;2023-09-30T06:47:53;14.60;99.90
15127;DHT22;7664;52.008;4.748;2023-09-30T06:50:21;14.70;99.90
15127;DHT22;7664;52.008;4.748;2023-09-30T06:52:50;14.70;99.90
15127;DHT22;7664;52.008;4.748;2023-09-30T06:55:20;14.80;99.90
15127;DHT22;7664;52.008;4.748;2023-09-30T06:57:48;14.80;99.90
15127;DHT22;7664;52.008;4.748;2023-09-30T07:00:16;14.80;99.90
15127;DHT22;7664;52.008;4.748;2023-09-30T07:02:44;14.80;99.90
15127;DHT22;7664;52.008;4.748;2023-09-30T07:05:14;14.90;99.90
15127;DHT22;7664;52.008;4.748;2023-09-30T07:07:43;14.90;99.90
15127;DHT22;7664;52.008;4.748;2023-09-30T07:10:12;15.00;99.90
15127;DHT22;7664;52.008;4.748;2023-09-30T07:12:42;15.10;99.90
15127;DHT22;7664;52.008;4.748;2023-09-30T07:15:11;15.10;99.90
15127;DHT22;7664;52.008;4.748;2023-09-30T07:17:40;15.30;99.90
15127;DHT22;7664;52.008;4.748;2023-09-30T07:20:11;15.40;99.90
15127;DHT22;7664;52.008;4.748;2023-09-30T07:22:40;15.50;99.90
15127;DHT22;7664;52.008;4.748;2023-09-30T07:25:25;15.70;99.90
15127;DHT22;7664;52.008;4.748;2023-09-30T07:27:54;15.70;99.90
15127;DHT22;7664;52.008;4.748;2023-09-30T07:30:23;15.80;99.90
15127;DHT22;7664;52.008;4.748;2023-09-30T07:32:51;15.90;99.90
15127;DHT22;7664;52.008;4.748;2023-09-30T07:35:19;16.00;99.90
15127;DHT22;7664;52.008;4.748;2023-09-30T07:37:48;16.00;99.90
15127;DHT22;7664;52.008;4.748;2023-09-30T07:40:18;16.10;99.90
15127;DHT22;7664;52.008;4.748;2023-09-30T07:42:48;16.10;99.90
15127;DHT22;7664;52.008;4.748;2023-09-30T07:45:18;16.20;99.90
15127;DHT22;7664;52.008;4.748;2023-09-30T07:47:47;16.20;99.90
15127;DHT22;7664;52.008;4.748;2023-09-30T07:50:16;16.20;99.90
15127;DHT22;7664;52.008;4.748;2023-09-30T07:52:44;16.20;99.90
15127;DHT22;7664;52.008;4.748;2023-09-30T07:55:13;16.20;99.90
15127;DHT22;7664;52.008;4.748;2023-09-30T07:57:42;16.30;99.90
15127;DHT22;7664;52.008;4.748;2023-09-30T08:00:12;16.30;99.90
15127;DHT22;7664;52.008;4.748;2023-09-30T08:02:44;16.30;99.90
15127;DHT22;7664;52.008;4.748;2023-09-30T08:05:13;16.30;99.90
15127;DHT22;7664;52.008;4.748;2023-09-30T08:07:41;16.30;99.90
15127;DHT22;7664;52.008;4.748;2023-09-30T08:10:09;16.40;99.90
15127;DHT22;7664;52.008;4.748;2023-09-30T08:12:41;16.40;99.90
15127;DHT22;7664;52.008;4.748;2023-09-30T08:15:13;16.40;99.90
15127;DHT22;7664;52.008;4.748;2023-09-30T08:17:41;16.40;99.90
15127;DHT22;7664;52.008;4.748;2023-09-30T08:20:11;16.40;99.90
15127;DHT22;7664;52.008;4.748;2023-09-30T08:22:40;16.40;99.90
15127;DHT22;7664;52.008;4.748;2023-09-30T08:25:09;16.40;99.90
15127;DHT22;7664;52.008;4.748;2023-09-30T08:27:38;16.50;99.90
15127;DHT22;7664;52.008;4.748;2023-09-30T08:30:07;16.50;99.90
15127;DHT22;7664;52.008;4.748;2023-09-30T08:32:37;16.60;99.90
15127;DHT22;7664;52.008;4.748;2023-09-30T08:35:07;16.60;99.90
15127;DHT22;7664;52.008;4.748;2023-09-30T08:37:38;16.60;99.90
15127;DHT22;7664;52.008;4.748;2023-09-30T08:40:10;16.60;99.90
15127;DHT22;7664;52.008;4.748;2023-09-30T08:42:40;16.70;99.90
15127;DHT22;7664;52.008;4.748;2023-09-30T08:45:10;16.70;99.90
15127;DHT22;7664;52.008;4.748;2023-09-30T08:47:41;16.70;99.90
15127;DHT22;7664;52.008;4.748;2023-09-30T08:50:10;16.80;99.90
15127;DHT22;7664;52.008;4.748;2023-09-30T08:52:41;16.80;99.90
15127;DHT22;7664;52.008;4.748;2023-09-30T08:55:11;16.90;99.90
15127;DHT22;7664;52.008;4.748;2023-09-30T08:57:40;16.90;99.90
15127;DHT22;7664;52.008;4.748;2023-09-30T09:00:11;16.90;99.90
15127;DHT22;7664;52.008;4.748;2023-09-30T09:02:43;17.00;99.90
15127;DHT22;7664;52.008;4.748;2023-09-30T09:05:11;17.10;99.90
15127;DHT22;7664;52.008;4.748;2023-09-30T09:07:40;17.10;99.90
15127;DHT22;7664;52.008;4.748;2023-09-30T09:10:11;17.20;99.90
15127;DHT22;7664;52.008;4.748;2023-09-30T09:12:41;17.30;99.90
15127;DHT22;7664;52.008;4.748;2023-09-30T09:15:21;17.30;99.90
15127;DHT22;7664;52.008;4.748;2023-09-30T09:17:49;17.50;99.90
15127;DHT22;7664;52.008;4.748;2023-09-30T09:20:20;17.60;99.90
15127;DHT22;7664;52.008;4.748;2023-09-30T09:22:52;17.80;99.90
15127;DHT22;7664;52.008;4.748;2023-09-30T09:25:23;17.90;99.90
15127;DHT22;7664;52.008;4.748;2023-09-30T09:27:52;18.00;99.90
15127;DHT22;7664;52.008;4.748;2023-09-30T09:30:23;18.20;99.90
15127;DHT22;7664;52.008;4.748;2023-09-30T09:32:53;18.20;99.90
15127;DHT22;7664;52.008;4.748;2023-09-30T09:35:21;18.10;99.90
15127;DHT22;7664;52.008;4.748;2023-09-30T09:37:56;18.20;99.90
15127;DHT22;7664;52.008;4.748;2023-09-30T09:40:26;18.20;99.90
15127;DHT22;7664;52.008;4.748;2023-09-30T09:42:55;18.20;99.90
15127;DHT22;7664;52.008;4.748;2023-09-30T09:45:25;18.20;99.90
15127;DHT22;7664;52.008;4.748;2023-09-30T09:47:54;18.20;99.90
15127;DHT22;7664;52.008;4.748;2023-09-30T09:50:23;18.20;99.90
15127;DHT22;7664;52.008;4.748;2023-09-30T09:52:52;18.20;99.90
15127;DHT22;7664;52.008;4.748;2023-09-30T09:55:23;18.20;99.90
15127;DHT22;7664;52.008;4.748;2023-09-30T09:57:51;18.30;99.90
15127;DHT22;7664;52.008;4.748;2023-09-30T10:00:21;18.20;99.90
15127;DHT22;7664;52.008;4.748;2023-09-30T10:02:51;18.30;99.90
15127;DHT22;7664;52.008;4.748;2023-09-30T10:05:21;18.30;99.90
15127;DHT22;7664;52.008;4.748;2023-09-30T10:07:52;18.30;99.90
15127;DHT22;7664;52.008;4.748;2023-09-30T10:10:23;18.40;99.90
15127;DHT22;7664;52.008;4.748;2023-09-30T10:12:52;18.40;99.90
15127;DHT22;7664;52.008;4.748;2023-09-30T10:15:39;18.40;99.90
15127;DHT22;7664;52.008;4.748;2023-09-30T10:18:11;18.40;99.90
15127;DHT22;7664;52.008;4.748;2023-09-30T10:20:44;18.50;99.90
15127;DHT22;7664;52.008;4.748;2023-09-30T10:23:23;18.60;99.90
15127;DHT22;7664;52.008;4.748;2023-09-30T10:26:15;18.60;99.90
15127;DHT22;7664;52.008;4.748;2023-09-30T10:28:45;18.70;99.90
15127;DHT22;7664;52.008;4.748;2023-09-30T10:31:17;18.70;99.90
15127;DHT22;7664;52.008;4.748;2023-09-30T10:34:20;18.80;99.90
15127;DHT22;7664;52.008;4.748;2023-09-30T10:36:49;18.90;99.90
15127;DHT22;7664;52.008;4.748;2023-09-30T10:39:54;18.90;99.90
15127;DHT22;7664;52.008;4.748;2023-09-30T10:42:49;19.00;99.90
15127;DHT22;7664;52.008;4.748;2023-09-30T10:45:43;19.00;99.90
15127;DHT22;7664;52.008;4.748;2023-09-30T10:48:34;19.10;99.90
15127;DHT22;7664;52.008;4.748;2023-09-30T10:51:16;19.20;99.90
15127;DHT22;7664;52.008;4.748;2023-09-30T10:53:49;19.30;99.90
15127;DHT22;7664;52.008;4.748;2023-09-30T10:56:19;19.30;99.90
15127;DHT22;7664;52.008;4.748;2023-09-30T10:58:50;19.40;99.90
15127;DHT22;7664;52.008;4.748;2023-09-30T11:01:20;19.50;99.90
15127;DHT22;7664;52.008;4.748;2023-09-30T11:03:49;19.50;99.90
15127;DHT22;7664;52.008;4.748;2023-09-30T11:06:20;19.60;99.90
15127;DHT22;7664;52.008;4.748;2023-09-30T11:08:52;19.70;99.90
15127;DHT22;7664;52.008;4.748;2023-09-30T11:11:35;19.80;99.90
15127;DHT22;7664;52.008;4.748;2023-09-30T11:14:16;19.80;99.90
15127;DHT22;7664;52.008;4.748;2023-09-30T11:16:45;19.80;99.90
15127;DHT22;7664;52.008;4.748;2023-09-30T11:19:13;19.80;99.90
15127;DHT22;7664;52.008;4.748;2023-09-30T11:21:42;19.80;99.90
15127;DHT22;7664;52.008;4.748;2023-09-30T11:24:13;19.70;99.90
15127;DHT22;7664;52.008;4.748;2023-09-30T11:26:41;19.70;99.90
15127;DHT22;7664;52.008;4.748;2023-09-30T11:29:12;19.70;99.90
15127;DHT22;7664;52.008;4.748;2023-09-30T11:31:44;19.80;99.90
15127;DHT22;7664;52.008;4.748;2023-09-30T11:34:15;19.80;99.90
15127;DHT22;7664;52.008;4.748;2023-09-30T11:36:48;19.80;99.90
15127;DHT22;7664;52.008;4.748;2023-09-30T11:39:22;19.70;99.90
15127;DHT22;7664;52.008;4.748;2023-09-30T11:41:51;19.80;99.90
15127;DHT22;7664;52.008;4.748;2023-09-30T11:44:21;19.80;99.90
15127;DHT22;7664;52.008;4.748;2023-09-30T11:46:53;19.80;99.90
15127;DHT22;7664;52.008;4.748;2023-09-30T11:49:27;19.90;99.90
15127;DHT22;7664;52.008;4.748;2023-09-30T11:51:56;19.90;99.90
15127;DHT22;7664;52.008;4.748;2023-09-30T11:54:29;19.90;99.90
15127;DHT22;7664;52.008;4.748;2023-09-30T11:56:59;20.00;99.90
15127;DHT22;7664;52.008;4.748;2023-09-30T11:59:29;20.00;99.90
15127;DHT22;7664;52.008;4.748;2023-09-30T12:01:57;20.10;99.90
15127;DHT22;7664;52.008;4.748;2023-09-30T12:04:41;20.10;99.90
15127;DHT22;7664;52.008;4.748;2023-09-30T12:07:10;20.20;99.90
15127;DHT22;7664;52.008;4.748;2023-09-30T12:09:38;20.20;99.90
15127;DHT22;7664;52.008;4.748;2023-09-30T12:12:07;20.30;99.90
15127;DHT22;7664;52.008;4.748;2023-09-30T12:14:39;20.30;99.90
15127;DHT22;7664;52.008;4.748;2023-09-30T12:17:07;20.30;99.90
15127;DHT22;7664;52.008;4.748;2023-09-30T12:19:38;20.30;99.90
15127;DHT22;7664;52.008;4.748;2023-09-30T12:22:08;20.40;99.90
15127;DHT22;7664;52.008;4.748;2023-09-30T12:24:38;20.40;99.90
15127;DHT22;7664;52.008;4.748;2023-09-30T12:27:07;20.40;99.90
15127;DHT22;7664;52.008;4.748;2023-09-30T12:29:35;20.40;99.90
15127;DHT22;7664;52.008;4.748;2023-09-30T12:32:07;20.40;99.90
15127;DHT22;7664;52.008;4.748;2023-09-30T12:34:35;20.40;99.90
15127;DHT22;7664;52.008;4.748;2023-09-30T12:37:03;20.50;99.90
15127;DHT22;7664;52.008;4.748;2023-09-30T12:39:32;20.50;99.90
15127;DHT22;7664;52.008;4.748;2023-09-30T12:42:00;20.50;99.90
15127;DHT22;7664;52.008;4.748;2023-09-30T12:44:30;20.50;99.90
15127;DHT22;7664;52.008;4.748;2023-09-30T12:46:57;20.50;99.90
15127;DHT22;7664;52.008;4.748;2023-09-30T12:49:27;20.50;99.90
15127;DHT22;7664;52.008;4.748;2023-09-30T12:51:55;20.40;99.90
15127;DHT22;7664;52.008;4.748;2023-09-30T12:54:25;20.40;99.90
15127;DHT22;7664;52.008;4.748;2023-09-30T12:56:53;20.40;99.90
15127;DHT22;7664;52.008;4.748;2023-09-30T12:59:22;20.40;99.90
15127;DHT22;7664;52.008;4.748;2023-09-30T13:01:53;20.40;99.90
15127;DHT22;7664;52.008;4.748;2023-09-30T13:04:21;20.40;99.90
15127;DHT22;7664;52.008;4.748;2023-09-30T13:06:51;20.40;99.90
15127;DHT22;7664;52.008;4.748;2023-09-30T13:09:20;20.30;99.90
15127;DHT22;7664;52.008;4.748;2023-09-30T13:11:49;20.30;99.90
15127;DHT22;7664;52.008;4.748;2023-09-30T13:14:17;20.30;99.90
15127;DHT22;7664;52.008;4.748;2023-09-30T13:16:45;20.30;99.90
15127;DHT22;7664;52.008;4.748;2023-09-30T13:19:13;20.30;99.90
15127;DHT22;7664;52.008;4.748;2023-09-30T13:21:42;20.30;99.90
15127;DHT22;7664;52.008;4.748;2023-09-30T13:24:12;20.30;99.90
15127;DHT22;7664;52.008;4.748;2023-09-30T13:26:40;20.20;99.90
15127;DHT22;7664;52.008;4.748;2023-09-30T13:29:08;20.20;99.90
15127;DHT22;7664;52.008;4.748;2023-09-30T13:31:38;20.20;99.90
15127;DHT22;7664;52.008;4.748;2023-09-30T13:34:07;20.20;99.90
15127;DHT22;7664;52.008;4.748;2023-09-30T13:36:35;20.20;99.90
15127;DHT22;7664;52.008;4.748;2023-09-30T13:39:03;20.30;99.90
15127;DHT22;7664;52.008;4.748;2023-09-30T13:41:36;20.30;99.90
15127;DHT22;7664;52.008;4.748;2023-09-30T13:44:07;20.30;99.90
15127;DHT22;7664;52.008;4.748;2023-09-30T13:46:35;20.30;99.90
15127;DHT22;7664;52.008;4.748;2023-09-30T13:49:09;20.40;99.90
15127;DHT22;7664;52.008;4.748;2023-09-30T13:51:38;20.20;99.90
15127;DHT22;7664;52.008;4.748;2023-09-30T13:54:06;20.40;99.90
15127;DHT22;7664;52.008;4.748;2023-09-30T13:56:37;20.30;99.90
15127;DHT22;7664;52.008;4.748;2023-09-30T13:59:13;20.30;99.90
15127;DHT22;7664;52.008;4.748;2023-09-30T14:01:45;20.30;99.90
15127;DHT22;7664;52.008;4.748;2023-09-30T14:04:13;20.20;99.90
15127;DHT22;7664;52.008;4.748;2023-09-30T14:06:43;20.20;99.90
15127;DHT22;7664;52.008;4.748;2023-09-30T14:09:11;20.10;99.90
15127;DHT22;7664;52.008;4.748;2023-09-30T14:12:02;20.10;99.90
15127;DHT22;7664;52.008;4.748;2023-09-30T14:14:32;20.20;99.90
15127;DHT22;7664;52.008;4.748;2023-09-30T14:17:01;20.20;99.90
15127;DHT22;7664;52.008;4.748;2023-09-30T14:19:34;20.20;99.90
15127;DHT22;7664;52.008;4.748;2023-09-30T14:22:02;20.20;99.90
15127;DHT22;7664;52.008;4.748;2023-09-30T14:24:32;20.20;99.90
15127;DHT22;7664;52.008;4.748;2023-09-30T14:27:04;20.30;99.90
15127;DHT22;7664;52.008;4.748;2023-09-30T14:29:33;20.30;99.90
15127;DHT22;7664;52.008;4.748;2023-09-30T14:32:01;20.30;99.90
15127;DHT22;7664;52.008;4.748;2023-09-30T14:34:32;20.30;99.90
15127;DHT22;7664;52.008;4.748;2023-09-30T14:37:02;20.40;99.90
15127;DHT22;7664;52.008;4.748;2023-09-30T14:39:35;20.30;99.90
15127;DHT22;7664;52.008;4.748;2023-09-30T14:42:04;20.30;99.90
15127;DHT22;7664;52.008;4.748;2023-09-30T14:44:36;20.30;99.90
15127;DHT22;7664;52.008;4.748;2023-09-30T14:47:06;20.30;99.90
15127;DHT22;7664;52.008;4.748;2023-09-30T14:49:35;20.20;99.90
15127;DHT22;7664;52.008;4.748;2023-09-30T14:52:03;20.20;99.90
15127;DHT22;7664;52.008;4.748;2023-09-30T14:54:36;20.20;99.90
15127;DHT22;7664;52.008;4.748;2023-09-30T14:57:07;20.20;99.90
15127;DHT22;7664;52.008;4.748;2023-09-30T14:59:37;20.20;99.90
15127;DHT22;7664;52.008;4.748;2023-09-30T15:02:06;20.20;99.90
15127;DHT22;7664;52.008;4.748;2023-09-30T15:04:35;20.20;99.90
15127;DHT22;7664;52.008;4.748;2023-09-30T15:07:04;20.20;99.90
15127;DHT22;7664;52.008;4.748;2023-09-30T15:09:32;20.20;99.90
15127;DHT22;7664;52.008;4.748;2023-09-30T15:12:01;20.10;99.90
15127;DHT22;7664;52.008;4.748;2023-09-30T15:14:30;20.00;99.90
15127;DHT22;7664;52.008;4.748;2023-09-30T15:16:58;20.00;99.90
15127;DHT22;7664;52.008;4.748;2023-09-30T15:19:29;19.90;99.90
15127;DHT22;7664;52.008;4.748;2023-09-30T15:21:58;19.80;99.90
15127;DHT22;7664;52.008;4.748;2023-09-30T15:24:26;19.80;99.90
15127;DHT22;7664;52.008;4.748;2023-09-30T15:26:54;19.80;99.90
15127;DHT22;7664;52.008;4.748;2023-09-30T15:29:24;19.80;99.90
15127;DHT22;7664;52.008;4.748;2023-09-30T15:31:53;19.80;99.90
15127;DHT22;7664;52.008;4.748;2023-09-30T15:34:21;19.80;99.90
15127;DHT22;7664;52.008;4.748;2023-09-30T15:36:50;19.80;99.90
15127;DHT22;7664;52.008;4.748;2023-09-30T15:39:19;19.80;99.90
15127;DHT22;7664;52.008;4.748;2023-09-30T15:41:47;19.70;99.90
15127;DHT22;7664;52.008;4.748;2023-09-30T15:44:15;19.70;99.90
15127;DHT22;7664;52.008;4.748;2023-09-30T15:46:44;19.70;99.90
15127;DHT22;7664;52.008;4.748;2023-09-30T15:49:13;19.60;99.90
15127;DHT22;7664;52.008;4.748;2023-09-30T15:51:42;19.60;99.90
15127;DHT22;7664;52.008;4.748;2023-09-30T15:54:10;19.60;99.90
15127;DHT22;7664;52.008;4.748;2023-09-30T15:56:38;19.60;99.90
15127;DHT22;7664;52.008;4.748;2023-09-30T15:59:21;19.50;99.90
15127;DHT22;7664;52.008;4.748;2023-09-30T16:01:49;19.40;99.90